sensor_id;sensor_type;location;lat;lon;timestamp;P1;durP1;ratioP1;P2;durP2;ratioP2
1128;SDS011;553;51.038;7.216;2022-07-22T00:02:05;38.83;;;26.83;;
1128;SDS011;553;51.038;7.216;2022-07-22T00:04:32;35.23;;;24.60;;
1128;SDS011;553;51.038;7.216;2022-07-22T00:06:59;39.00;;;24.83;;
1128;SDS011;553;51.038;7.216;2022-07-22T00:09:26;30.83;;;22.53;;
1128;SDS011;553;51.038;7.216;2022-07-22T00:11:53;32.00;;;20.90;;
1128;SDS011;553;51.038;7.216;2022-07-22T00:14:19;35.60;;;21.87;;
1128;SDS011;553;51.038;7.216;2022-07-22T00:16:47;32.10;;;21.30;;
1128;SDS011;553;51.038;7.216;2022-07-22T00:19:14;37.93;;;21.03;;
1128;SDS011;553;51.038;7.216;2022-07-22T00:21:41;31.27;;;21.53;;
1128;SDS011;553;51.038;7.216;2022-07-22T00:24:08;31.37;;;22.17;;
1128;SDS011;553;51.038;7.216;2022-07-22T00:26:38;36.10;;;21.80;;
1128;SDS011;553;51.038;7.216;2022-07-22T00:29:05;33.17;;;22.77;;
1128;SDS011;553;51.038;7.216;2022-07-22T00:31:32;36.90;;;25.40;;
1128;SDS011;553;51.038;7.216;2022-07-22T00:33:59;39.70;;;27.00;;
1128;SDS011;553;51.038;7.216;2022-07-22T00:36:30;53.77;;;29.60;;
1128;SDS011;553;51.038;7.216;2022-07-22T00:38:57;46.27;;;29.40;;
1128;SDS011;553;51.038;7.216;2022-07-22T00:41:25;47.60;;;26.93;;
1128;SDS011;553;51.038;7.216;2022-07-22T00:46:31;39.73;;;24.77;;
1128;SDS011;553;51.038;7.216;2022-07-22T00:48:59;39.77;;;25.10;;
1128;SDS011;553;51.038;7.216;2022-07-22T00:51:27;35.87;;;22.70;;
1128;SDS011;553;51.038;7.216;2022-07-22T00:53:57;33.40;;;22.90;;
1128;SDS011;553;51.038;7.216;2022-07-22T00:56:25;31.27;;;20.20;;
1128;SDS011;553;51.038;7.216;2022-07-22T00:58:54;29.67;;;19.13;;
1128;SDS011;553;51.038;7.216;2022-07-22T01:01:24;35.10;;;18.73;;
1128;SDS011;553;51.038;7.216;2022-07-22T01:03:51;28.50;;;19.77;;
1128;SDS011;553;51.038;7.216;2022-07-22T01:06:26;30.97;;;18.50;;
1128;SDS011;553;51.038;7.216;2022-07-22T01:08:54;25.80;;;17.90;;
1128;SDS011;553;51.038;7.216;2022-07-22T01:11:23;22.60;;;16.83;;
1128;SDS011;553;51.038;7.216;2022-07-22T01:13:51;28.20;;;17.60;;
1128;SDS011;553;51.038;7.216;2022-07-22T01:16:20;26.10;;;18.40;;
1128;SDS011;553;51.038;7.216;2022-07-22T01:18:47;25.67;;;17.90;;
1128;SDS011;553;51.038;7.216;2022-07-22T01:21:14;31.90;;;18.60;;
1128;SDS011;553;51.038;7.216;2022-07-22T01:23:42;25.00;;;17.80;;
1128;SDS011;553;51.038;7.216;2022-07-22T01:26:09;27.10;;;17.50;;
1128;SDS011;553;51.038;7.216;2022-07-22T01:28:36;23.03;;;17.50;;
1128;SDS011;553;51.038;7.216;2022-07-22T01:31:04;25.33;;;16.73;;
1128;SDS011;553;51.038;7.216;2022-07-22T01:33:31;25.93;;;16.47;;
1128;SDS011;553;51.038;7.216;2022-07-22T01:35:59;26.03;;;18.07;;
1128;SDS011;553;51.038;7.216;2022-07-22T01:38:26;19.93;;;15.40;;
1128;SDS011;553;51.038;7.216;2022-07-22T01:40:53;26.50;;;17.90;;
1128;SDS011;553;51.038;7.216;2022-07-22T01:43:20;24.47;;;16.07;;
1128;SDS011;553;51.038;7.216;2022-07-22T01:45:49;20.87;;;15.17;;
1128;SDS011;553;51.038;7.216;2022-07-22T01:48:18;29.00;;;17.67;;
1128;SDS011;553;51.038;7.216;2022-07-22T01:50:45;24.60;;;15.90;;
1128;SDS011;553;51.038;7.216;2022-07-22T01:53:13;23.93;;;17.10;;
1128;SDS011;553;51.038;7.216;2022-07-22T01:55:41;22.13;;;16.07;;
1128;SDS011;553;51.038;7.216;2022-07-22T01:58:14;29.70;;;16.47;;
1128;SDS011;553;51.038;7.216;2022-07-22T02:00:41;21.50;;;15.90;;
1128;SDS011;553;51.038;7.216;2022-07-22T02:03:09;22.67;;;16.80;;
1128;SDS011;553;51.038;7.216;2022-07-22T02:05:37;23.23;;;16.00;;
1128;SDS011;553;51.038;7.216;2022-07-22T02:08:14;14.33;;;11.67;;
1128;SDS011;553;51.038;7.216;2022-07-22T02:11:20;14.73;;;9.93;;
1128;SDS011;553;51.038;7.216;2022-07-22T02:13:51;15.77;;;10.70;;
1128;SDS011;553;51.038;7.216;2022-07-22T02:16:19;15.13;;;11.00;;
1128;SDS011;553;51.038;7.216;2022-07-22T02:18:48;16.00;;;11.90;;
1128;SDS011;553;51.038;7.216;2022-07-22T02:21:15;16.87;;;12.00;;
1128;SDS011;553;51.038;7.216;2022-07-22T02:23:42;17.37;;;12.10;;
1128;SDS011;553;51.038;7.216;2022-07-22T02:26:09;18.73;;;12.37;;
1128;SDS011;553;51.038;7.216;2022-07-22T02:28:36;21.83;;;12.40;;
1128;SDS011;553;51.038;7.216;2022-07-22T02:31:03;23.33;;;13.53;;
1128;SDS011;553;51.038;7.216;2022-07-22T02:33:31;20.60;;;14.93;;
1128;SDS011;553;51.038;7.216;2022-07-22T02:35:59;23.07;;;14.67;;
1128;SDS011;553;51.038;7.216;2022-07-22T02:38:26;25.60;;;15.90;;
1128;SDS011;553;51.038;7.216;2022-07-22T02:40:53;21.13;;;13.70;;
1128;SDS011;553;51.038;7.216;2022-07-22T02:43:20;26.33;;;17.07;;
1128;SDS011;553;51.038;7.216;2022-07-22T02:45:47;26.23;;;15.50;;
1128;SDS011;553;51.038;7.216;2022-07-22T02:48:14;27.70;;;17.70;;
1128;SDS011;553;51.038;7.216;2022-07-22T02:50:45;31.60;;;19.07;;
1128;SDS011;553;51.038;7.216;2022-07-22T02:53:17;32.73;;;20.53;;
1128;SDS011;553;51.038;7.216;2022-07-22T02:55:44;33.53;;;20.73;;
1128;SDS011;553;51.038;7.216;2022-07-22T02:58:11;35.47;;;20.60;;
1128;SDS011;553;51.038;7.216;2022-07-22T03:00:41;39.60;;;21.60;;
1128;SDS011;553;51.038;7.216;2022-07-22T03:03:08;37.27;;;21.80;;
1128;SDS011;553;51.038;7.216;2022-07-22T03:05:34;34.87;;;19.47;;
1128;SDS011;553;51.038;7.216;2022-07-22T03:08:15;31.50;;;18.10;;
1128;SDS011;553;51.038;7.216;2022-07-22T03:10:43;31.13;;;18.47;;
1128;SDS011;553;51.038;7.216;2022-07-22T03:13:10;34.50;;;18.33;;
1128;SDS011;553;51.038;7.216;2022-07-22T03:15:37;29.33;;;15.47;;
1128;SDS011;553;51.038;7.216;2022-07-22T03:18:04;29.97;;;15.20;;
1128;SDS011;553;51.038;7.216;2022-07-22T03:20:31;26.10;;;16.40;;
1128;SDS011;553;51.038;7.216;2022-07-22T03:22:59;23.63;;;13.80;;
1128;SDS011;553;51.038;7.216;2022-07-22T03:25:26;26.20;;;14.10;;
1128;SDS011;553;51.038;7.216;2022-07-22T03:27:54;25.77;;;14.73;;
1128;SDS011;553;51.038;7.216;2022-07-22T03:30:21;22.70;;;13.83;;
1128;SDS011;553;51.038;7.216;2022-07-22T03:32:48;22.37;;;13.13;;
1128;SDS011;553;51.038;7.216;2022-07-22T03:35:18;22.93;;;12.73;;
1128;SDS011;553;51.038;7.216;2022-07-22T03:37:45;19.70;;;11.67;;
1128;SDS011;553;51.038;7.216;2022-07-22T03:40:13;21.03;;;12.23;;
1128;SDS011;553;51.038;7.216;2022-07-22T03:42:41;23.37;;;13.57;;
1128;SDS011;553;51.038;7.216;2022-07-22T03:45:12;25.37;;;13.33;;
1128;SDS011;553;51.038;7.216;2022-07-22T03:47:39;32.20;;;15.73;;
1128;SDS011;553;51.038;7.216;2022-07-22T03:50:07;32.53;;;17.60;;
1128;SDS011;553;51.038;7.216;2022-07-22T03:52:34;31.47;;;17.40;;
1128;SDS011;553;51.038;7.216;2022-07-22T03:55:05;31.90;;;17.80;;
1128;SDS011;553;51.038;7.216;2022-07-22T03:57:32;37.53;;;18.37;;
1128;SDS011;553;51.038;7.216;2022-07-22T04:00:06;43.87;;;20.23;;
1128;SDS011;553;51.038;7.216;2022-07-22T04:02:43;39.33;;;21.77;;
1128;SDS011;553;51.038;7.216;2022-07-22T04:05:17;38.20;;;20.60;;
1128;SDS011;553;51.038;7.216;2022-07-22T04:07:44;41.30;;;20.10;;
1128;SDS011;553;51.038;7.216;2022-07-22T04:10:11;42.60;;;21.10;;
1128;SDS011;553;51.038;7.216;2022-07-22T04:12:41;44.10;;;21.13;;
1128;SDS011;553;51.038;7.216;2022-07-22T04:15:34;44.53;;;22.40;;
1128;SDS011;553;51.038;7.216;2022-07-22T04:18:01;40.83;;;20.60;;
1128;SDS011;553;51.038;7.216;2022-07-22T04:20:29;34.40;;;19.10;;
1128;SDS011;553;51.038;7.216;2022-07-22T04:23:16;38.47;;;18.70;;
1128;SDS011;553;51.038;7.216;2022-07-22T04:25:49;35.17;;;17.90;;
1128;SDS011;553;51.038;7.216;2022-07-22T04:28:16;36.07;;;18.43;;
1128;SDS011;553;51.038;7.216;2022-07-22T04:30:43;34.83;;;16.73;;
1128;SDS011;553;51.038;7.216;2022-07-22T04:33:10;28.93;;;14.53;;
1128;SDS011;553;51.038;7.216;2022-07-22T04:35:37;30.77;;;16.17;;
1128;SDS011;553;51.038;7.216;2022-07-22T04:38:11;33.67;;;16.23;;
1128;SDS011;553;51.038;7.216;2022-07-22T04:40:43;30.10;;;17.37;;
1128;SDS011;553;51.038;7.216;2022-07-22T04:43:09;30.23;;;16.17;;
1128;SDS011;553;51.038;7.216;2022-07-22T04:45:36;29.30;;;15.03;;
1128;SDS011;553;51.038;7.216;2022-07-22T04:48:03;26.80;;;15.10;;
1128;SDS011;553;51.038;7.216;2022-07-22T04:50:31;28.83;;;14.67;;
1128;SDS011;553;51.038;7.216;2022-07-22T04:52:58;29.07;;;15.73;;
1128;SDS011;553;51.038;7.216;2022-07-22T04:55:26;26.73;;;13.83;;
1128;SDS011;553;51.038;7.216;2022-07-22T04:57:53;28.33;;;15.13;;
1128;SDS011;553;51.038;7.216;2022-07-22T05:00:20;32.40;;;19.63;;
1128;SDS011;553;51.038;7.216;2022-07-22T05:02:52;28.70;;;15.40;;
1128;SDS011;553;51.038;7.216;2022-07-22T05:05:19;26.23;;;14.60;;
1128;SDS011;553;51.038;7.216;2022-07-22T05:07:47;27.33;;;15.23;;
1128;SDS011;553;51.038;7.216;2022-07-22T05:10:14;28.83;;;13.53;;
1128;SDS011;553;51.038;7.216;2022-07-22T05:12:46;24.00;;;14.07;;
1128;SDS011;553;51.038;7.216;2022-07-22T05:15:13;30.17;;;16.80;;
1128;SDS011;553;51.038;7.216;2022-07-22T05:17:40;29.43;;;14.83;;
1128;SDS011;553;51.038;7.216;2022-07-22T05:20:21;30.97;;;17.60;;
1128;SDS011;553;51.038;7.216;2022-07-22T05:22:47;31.57;;;19.03;;
1128;SDS011;553;51.038;7.216;2022-07-22T05:25:19;31.73;;;18.20;;
1128;SDS011;553;51.038;7.216;2022-07-22T05:27:50;33.47;;;19.40;;
1128;SDS011;553;51.038;7.216;2022-07-22T05:30:24;32.37;;;18.90;;
1128;SDS011;553;51.038;7.216;2022-07-22T05:32:51;32.50;;;19.53;;
1128;SDS011;553;51.038;7.216;2022-07-22T05:35:36;34.10;;;19.13;;
1128;SDS011;553;51.038;7.216;2022-07-22T05:38:03;32.50;;;19.13;;
1128;SDS011;553;51.038;7.216;2022-07-22T05:40:31;33.77;;;18.90;;
1128;SDS011;553;51.038;7.216;2022-07-22T05:42:58;35.87;;;20.23;;
1128;SDS011;553;51.038;7.216;2022-07-22T05:45:25;35.47;;;20.10;;
1128;SDS011;553;51.038;7.216;2022-07-22T05:47:52;38.50;;;22.83;;
1128;SDS011;553;51.038;7.216;2022-07-22T05:50:19;32.67;;;20.57;;
1128;SDS011;553;51.038;7.216;2022-07-22T05:52:45;35.90;;;20.00;;
1128;SDS011;553;51.038;7.216;2022-07-22T05:55:12;38.87;;;21.10;;
1128;SDS011;553;51.038;7.216;2022-07-22T05:57:41;38.97;;;20.90;;
1128;SDS011;553;51.038;7.216;2022-07-22T06:00:09;38.90;;;19.87;;
1128;SDS011;553;51.038;7.216;2022-07-22T06:02:39;40.60;;;20.00;;
1128;SDS011;553;51.038;7.216;2022-07-22T06:05:10;36.60;;;20.17;;
1128;SDS011;553;51.038;7.216;2022-07-22T06:07:57;33.63;;;18.53;;
1128;SDS011;553;51.038;7.216;2022-07-22T06:10:32;33.80;;;17.53;;
1128;SDS011;553;51.038;7.216;2022-07-22T06:12:59;35.80;;;18.23;;
1128;SDS011;553;51.038;7.216;2022-07-22T06:15:25;29.07;;;17.10;;
1128;SDS011;553;51.038;7.216;2022-07-22T06:17:53;26.17;;;15.00;;
1128;SDS011;553;51.038;7.216;2022-07-22T06:20:19;31.17;;;16.77;;
1128;SDS011;553;51.038;7.216;2022-07-22T06:22:46;28.50;;;15.23;;
1128;SDS011;553;51.038;7.216;2022-07-22T06:25:13;23.93;;;13.80;;
1128;SDS011;553;51.038;7.216;2022-07-22T06:28:00;24.87;;;15.73;;
1128;SDS011;553;51.038;7.216;2022-07-22T06:30:27;24.90;;;13.30;;
1128;SDS011;553;51.038;7.216;2022-07-22T06:32:54;21.77;;;12.53;;
1128;SDS011;553;51.038;7.216;2022-07-22T06:35:22;24.13;;;14.30;;
1128;SDS011;553;51.038;7.216;2022-07-22T06:37:53;22.67;;;13.03;;
1128;SDS011;553;51.038;7.216;2022-07-22T06:41:00;20.50;;;12.50;;
1128;SDS011;553;51.038;7.216;2022-07-22T06:43:53;22.93;;;12.47;;
1128;SDS011;553;51.038;7.216;2022-07-22T06:46:31;20.63;;;12.60;;
1128;SDS011;553;51.038;7.216;2022-07-22T06:48:58;19.47;;;12.07;;
1128;SDS011;553;51.038;7.216;2022-07-22T06:51:28;20.53;;;12.30;;
1128;SDS011;553;51.038;7.216;2022-07-22T06:53:56;23.57;;;12.90;;
1128;SDS011;553;51.038;7.216;2022-07-22T06:56:23;21.40;;;12.80;;
1128;SDS011;553;51.038;7.216;2022-07-22T06:58:50;20.90;;;13.80;;
1128;SDS011;553;51.038;7.216;2022-07-22T07:01:17;17.90;;;12.27;;
1128;SDS011;553;51.038;7.216;2022-07-22T07:03:50;21.87;;;11.70;;
1128;SDS011;553;51.038;7.216;2022-07-22T07:06:16;16.43;;;11.17;;
1128;SDS011;553;51.038;7.216;2022-07-22T07:09:06;19.23;;;11.90;;
1128;SDS011;553;51.038;7.216;2022-07-22T07:11:34;19.10;;;11.27;;
1128;SDS011;553;51.038;7.216;2022-07-22T07:14:07;19.93;;;12.67;;
1128;SDS011;553;51.038;7.216;2022-07-22T07:16:33;14.93;;;9.57;;
1128;SDS011;553;51.038;7.216;2022-07-22T07:19:01;11.60;;;9.07;;
1128;SDS011;553;51.038;7.216;2022-07-22T07:21:28;10.27;;;7.43;;
1128;SDS011;553;51.038;7.216;2022-07-22T07:23:56;15.27;;;9.97;;
1128;SDS011;553;51.038;7.216;2022-07-22T07:26:25;11.70;;;7.40;;
1128;SDS011;553;51.038;7.216;2022-07-22T07:28:52;10.77;;;8.17;;
1128;SDS011;553;51.038;7.216;2022-07-22T07:31:29;13.37;;;8.80;;
1128;SDS011;553;51.038;7.216;2022-07-22T07:33:59;17.73;;;9.30;;
1128;SDS011;553;51.038;7.216;2022-07-22T07:36:26;9.27;;;7.10;;
1128;SDS011;553;51.038;7.216;2022-07-22T07:38:53;12.63;;;8.40;;
1128;SDS011;553;51.038;7.216;2022-07-22T07:41:21;12.43;;;8.23;;
1128;SDS011;553;51.038;7.216;2022-07-22T07:43:49;9.70;;;7.47;;
1128;SDS011;553;51.038;7.216;2022-07-22T07:46:17;9.07;;;6.93;;
1128;SDS011;553;51.038;7.216;2022-07-22T07:48:44;7.87;;;6.10;;
1128;SDS011;553;51.038;7.216;2022-07-22T07:51:11;7.73;;;6.20;;
1128;SDS011;553;51.038;7.216;2022-07-22T07:53:40;10.20;;;5.77;;
1128;SDS011;553;51.038;7.216;2022-07-22T07:56:07;8.30;;;6.20;;
1128;SDS011;553;51.038;7.216;2022-07-22T07:58:34;10.33;;;5.90;;
1128;SDS011;553;51.038;7.216;2022-07-22T08:01:05;7.10;;;4.90;;
1128;SDS011;553;51.038;7.216;2022-07-22T08:03:34;10.17;;;4.60;;
1128;SDS011;553;51.038;7.216;2022-07-22T08:06:01;8.83;;;4.83;;
1128;SDS011;553;51.038;7.216;2022-07-22T08:08:28;9.40;;;6.20;;
1128;SDS011;553;51.038;7.216;2022-07-22T08:11:05;8.40;;;5.23;;
1128;SDS011;553;51.038;7.216;2022-07-22T08:13:51;7.30;;;5.20;;
1128;SDS011;553;51.038;7.216;2022-07-22T08:16:41;6.13;;;5.40;;
1128;SDS011;553;51.038;7.216;2022-07-22T08:19:08;7.53;;;5.00;;
1128;SDS011;553;51.038;7.216;2022-07-22T08:21:35;8.53;;;5.40;;
1128;SDS011;553;51.038;7.216;2022-07-22T08:24:20;7.53;;;5.60;;
1128;SDS011;553;51.038;7.216;2022-07-22T08:26:47;9.17;;;6.00;;
1128;SDS011;553;51.038;7.216;2022-07-22T08:29:14;7.87;;;6.07;;
1128;SDS011;553;51.038;7.216;2022-07-22T08:31:41;10.00;;;6.90;;
1128;SDS011;553;51.038;7.216;2022-07-22T08:34:10;8.03;;;6.37;;
1128;SDS011;553;51.038;7.216;2022-07-22T08:36:37;8.03;;;5.40;;
1128;SDS011;553;51.038;7.216;2022-07-22T08:39:04;8.23;;;5.40;;
1128;SDS011;553;51.038;7.216;2022-07-22T08:41:34;6.10;;;5.50;;
1128;SDS011;553;51.038;7.216;2022-07-22T08:44:03;8.43;;;5.53;;
1128;SDS011;553;51.038;7.216;2022-07-22T08:46:30;7.30;;;5.77;;
1128;SDS011;553;51.038;7.216;2022-07-22T08:49:30;8.57;;;5.43;;
1128;SDS011;553;51.038;7.216;2022-07-22T08:52:02;7.50;;;5.70;;
1128;SDS011;553;51.038;7.216;2022-07-22T08:54:36;9.00;;;6.30;;
1128;SDS011;553;51.038;7.216;2022-07-22T08:57:04;9.23;;;5.13;;
1128;SDS011;553;51.038;7.216;2022-07-22T08:59:30;12.23;;;6.67;;
1128;SDS011;553;51.038;7.216;2022-07-22T09:02:08;8.50;;;6.07;;
1128;SDS011;553;51.038;7.216;2022-07-22T09:07:33;10.10;;;6.23;;
1128;SDS011;553;51.038;7.216;2022-07-22T09:10:19;11.67;;;6.97;;
1128;SDS011;553;51.038;7.216;2022-07-22T09:13:06;12.20;;;6.60;;
1128;SDS011;553;51.038;7.216;2022-07-22T09:16:12;10.70;;;7.30;;
1128;SDS011;553;51.038;7.216;2022-07-22T09:18:53;8.60;;;6.60;;
1128;SDS011;553;51.038;7.216;2022-07-22T09:21:34;8.93;;;7.13;;
1128;SDS011;553;51.038;7.216;2022-07-22T09:24:27;16.23;;;6.60;;
1128;SDS011;553;51.038;7.216;2022-07-22T09:27:04;8.50;;;6.90;;
1128;SDS011;553;51.038;7.216;2022-07-22T09:29:42;7.40;;;6.70;;
1128;SDS011;553;51.038;7.216;2022-07-22T09:32:17;7.13;;;6.40;;
1128;SDS011;553;51.038;7.216;2022-07-22T09:34:51;13.73;;;7.40;;
1128;SDS011;553;51.038;7.216;2022-07-22T09:37:33;8.80;;;6.83;;
1128;SDS011;553;51.038;7.216;2022-07-22T09:40:17;9.70;;;7.77;;
1128;SDS011;553;51.038;7.216;2022-07-22T09:42:51;10.03;;;6.70;;
1128;SDS011;553;51.038;7.216;2022-07-22T09:45:20;10.40;;;8.73;;
1128;SDS011;553;51.038;7.216;2022-07-22T09:47:48;14.50;;;11.47;;
1128;SDS011;553;51.038;7.216;2022-07-22T09:50:48;10.03;;;9.00;;
1128;SDS011;553;51.038;7.216;2022-07-22T09:53:39;10.63;;;7.80;;
1128;SDS011;553;51.038;7.216;2022-07-22T09:56:10;9.50;;;7.80;;
1128;SDS011;553;51.038;7.216;2022-07-22T09:58:38;13.40;;;8.83;;
1128;SDS011;553;51.038;7.216;2022-07-22T10:01:20;11.80;;;7.87;;
1128;SDS011;553;51.038;7.216;2022-07-22T10:03:48;12.23;;;8.77;;
1128;SDS011;553;51.038;7.216;2022-07-22T10:06:19;9.80;;;8.03;;
1128;SDS011;553;51.038;7.216;2022-07-22T10:08:46;10.13;;;8.37;;
1128;SDS011;553;51.038;7.216;2022-07-22T10:11:14;14.33;;;8.27;;
1128;SDS011;553;51.038;7.216;2022-07-22T10:13:42;12.33;;;8.80;;
1128;SDS011;553;51.038;7.216;2022-07-22T10:16:11;13.43;;;8.33;;
1128;SDS011;553;51.038;7.216;2022-07-22T10:18:39;14.70;;;9.10;;
1128;SDS011;553;51.038;7.216;2022-07-22T10:21:11;12.70;;;9.27;;
1128;SDS011;553;51.038;7.216;2022-07-22T10:26:53;12.17;;;8.63;;
1128;SDS011;553;51.038;7.216;2022-07-22T10:34:42;17.93;;;11.50;;
1128;SDS011;553;51.038;7.216;2022-07-22T10:40:22;12.73;;;9.07;;
1128;SDS011;553;51.038;7.216;2022-07-22T10:45:26;10.70;;;7.87;;
1128;SDS011;553;51.038;7.216;2022-07-22T10:47:55;9.30;;;7.90;;
1128;SDS011;553;51.038;7.216;2022-07-22T10:53:09;9.60;;;7.50;;
1128;SDS011;553;51.038;7.216;2022-07-22T10:55:38;13.53;;;8.40;;
1128;SDS011;553;51.038;7.216;2022-07-22T11:01:00;11.33;;;9.40;;
1128;SDS011;553;51.038;7.216;2022-07-22T11:03:34;11.67;;;9.10;;
1128;SDS011;553;51.038;7.216;2022-07-22T11:09:02;13.63;;;8.40;;
1128;SDS011;553;51.038;7.216;2022-07-22T11:13:59;8.50;;;7.60;;
1128;SDS011;553;51.038;7.216;2022-07-22T11:16:27;9.73;;;8.17;;
1128;SDS011;553;51.038;7.216;2022-07-22T11:21:29;11.77;;;9.00;;
1128;SDS011;553;51.038;7.216;2022-07-22T11:24:04;14.90;;;9.50;;
1128;SDS011;553;51.038;7.216;2022-07-22T11:26:42;10.73;;;8.00;;
1128;SDS011;553;51.038;7.216;2022-07-22T11:29:15;10.20;;;7.70;;
1128;SDS011;553;51.038;7.216;2022-07-22T11:31:45;11.40;;;8.57;;
1128;SDS011;553;51.038;7.216;2022-07-22T11:34:12;9.13;;;7.67;;
1128;SDS011;553;51.038;7.216;2022-07-22T11:36:41;10.73;;;7.67;;
1128;SDS011;553;51.038;7.216;2022-07-22T11:39:09;8.17;;;7.30;;
1128;SDS011;553;51.038;7.216;2022-07-22T11:41:38;7.40;;;6.67;;
1128;SDS011;553;51.038;7.216;2022-07-22T11:44:06;6.97;;;5.80;;
1128;SDS011;553;51.038;7.216;2022-07-22T11:46:40;7.77;;;6.97;;
1128;SDS011;553;51.038;7.216;2022-07-22T11:49:09;6.63;;;5.93;;
1128;SDS011;553;51.038;7.216;2022-07-22T11:51:39;7.20;;;5.80;;
1128;SDS011;553;51.038;7.216;2022-07-22T11:54:06;5.93;;;5.33;;
1128;SDS011;553;51.038;7.216;2022-07-22T11:56:33;6.60;;;5.60;;
1128;SDS011;553;51.038;7.216;2022-07-22T11:59:01;7.27;;;6.20;;
1128;SDS011;553;51.038;7.216;2022-07-22T12:01:32;7.33;;;6.37;;
1128;SDS011;553;51.038;7.216;2022-07-22T12:06:29;7.97;;;5.70;;
1128;SDS011;553;51.038;7.216;2022-07-22T12:09:10;8.07;;;6.57;;
1128;SDS011;553;51.038;7.216;2022-07-22T12:11:42;7.47;;;6.17;;
1128;SDS011;553;51.038;7.216;2022-07-22T12:14:12;8.33;;;7.03;;
1128;SDS011;553;51.038;7.216;2022-07-22T12:16:44;7.60;;;6.07;;
1128;SDS011;553;51.038;7.216;2022-07-22T12:19:20;10.30;;;6.87;;
1128;SDS011;553;51.038;7.216;2022-07-22T12:24:44;6.97;;;5.90;;
1128;SDS011;553;51.038;7.216;2022-07-22T12:27:13;6.97;;;6.27;;
1128;SDS011;553;51.038;7.216;2022-07-22T12:34:47;7.50;;;6.57;;
1128;SDS011;553;51.038;7.216;2022-07-22T12:40:08;9.00;;;8.10;;
1128;SDS011;553;51.038;7.216;2022-07-22T12:42:45;46.10;;;41.70;;
1128;SDS011;553;51.038;7.216;2022-07-22T12:45:25;8.00;;;7.13;;
1128;SDS011;553;51.038;7.216;2022-07-22T12:47:55;9.70;;;6.70;;
1128;SDS011;553;51.038;7.216;2022-07-22T12:50:29;9.90;;;8.93;;
1128;SDS011;553;51.038;7.216;2022-07-22T12:52:57;29.07;;;26.43;;
1128;SDS011;553;51.038;7.216;2022-07-22T12:55:45;8.57;;;6.40;;
1128;SDS011;553;51.038;7.216;2022-07-22T12:58:18;8.60;;;7.33;;
1128;SDS011;553;51.038;7.216;2022-07-22T13:00:46;8.40;;;6.30;;
1128;SDS011;553;51.038;7.216;2022-07-22T13:03:15;6.93;;;6.33;;
1128;SDS011;553;51.038;7.216;2022-07-22T13:05:48;7.60;;;6.80;;
1128;SDS011;553;51.038;7.216;2022-07-22T13:08:16;8.47;;;6.60;;
1128;SDS011;553;51.038;7.216;2022-07-22T13:10:43;8.40;;;6.80;;
1128;SDS011;553;51.038;7.216;2022-07-22T13:13:10;9.83;;;8.80;;
1128;SDS011;553;51.038;7.216;2022-07-22T13:15:37;10.07;;;9.07;;
1128;SDS011;553;51.038;7.216;2022-07-22T13:18:04;9.33;;;8.33;;
1128;SDS011;553;51.038;7.216;2022-07-22T13:20:31;14.30;;;10.93;;
1128;SDS011;553;51.038;7.216;2022-07-22T13:22:58;9.33;;;8.43;;
1128;SDS011;553;51.038;7.216;2022-07-22T13:25:26;9.23;;;6.93;;
1128;SDS011;553;51.038;7.216;2022-07-22T13:27:53;7.97;;;7.23;;
1128;SDS011;553;51.038;7.216;2022-07-22T13:30:21;8.90;;;7.20;;
1128;SDS011;553;51.038;7.216;2022-07-22T13:32:48;13.97;;;9.00;;
1128;SDS011;553;51.038;7.216;2022-07-22T13:35:15;8.57;;;7.63;;
1128;SDS011;553;51.038;7.216;2022-07-22T13:37:43;9.07;;;8.17;;
1128;SDS011;553;51.038;7.216;2022-07-22T13:40:11;16.63;;;9.93;;
1128;SDS011;553;51.038;7.216;2022-07-22T13:42:38;14.10;;;9.50;;
1128;SDS011;553;51.038;7.216;2022-07-22T13:45:05;12.00;;;7.43;;
1128;SDS011;553;51.038;7.216;2022-07-22T13:47:35;11.03;;;8.27;;
1128;SDS011;553;51.038;7.216;2022-07-22T13:50:03;9.43;;;8.50;;
1128;SDS011;553;51.038;7.216;2022-07-22T13:52:30;8.83;;;7.93;;
1128;SDS011;553;51.038;7.216;2022-07-22T13:54:57;8.43;;;7.50;;
1128;SDS011;553;51.038;7.216;2022-07-22T13:57:24;8.57;;;7.67;;
1128;SDS011;553;51.038;7.216;2022-07-22T13:59:51;10.97;;;7.40;;
1128;SDS011;553;51.038;7.216;2022-07-22T14:02:18;9.40;;;8.50;;
1128;SDS011;553;51.038;7.216;2022-07-22T14:04:45;7.97;;;7.17;;
1128;SDS011;553;51.038;7.216;2022-07-22T14:07:12;8.83;;;7.70;;
1128;SDS011;553;51.038;7.216;2022-07-22T14:09:39;9.57;;;8.27;;
1128;SDS011;553;51.038;7.216;2022-07-22T14:12:06;13.50;;;9.40;;
1128;SDS011;553;51.038;7.216;2022-07-22T14:14:33;9.93;;;8.87;;
1128;SDS011;553;51.038;7.216;2022-07-22T14:17:00;9.50;;;7.47;;
1128;SDS011;553;51.038;7.216;2022-07-22T14:19:28;9.37;;;8.40;;
1128;SDS011;553;51.038;7.216;2022-07-22T14:21:55;12.53;;;8.33;;
1128;SDS011;553;51.038;7.216;2022-07-22T14:24:22;9.07;;;8.00;;
1128;SDS011;553;51.038;7.216;2022-07-22T14:26:50;11.07;;;8.47;;
1128;SDS011;553;51.038;7.216;2022-07-22T14:29:17;8.67;;;7.87;;
1128;SDS011;553;51.038;7.216;2022-07-22T14:31:44;8.30;;;7.50;;
1128;SDS011;553;51.038;7.216;2022-07-22T14:34:12;8.93;;;8.03;;
1128;SDS011;553;51.038;7.216;2022-07-22T14:36:39;9.13;;;8.30;;
1128;SDS011;553;51.038;7.216;2022-07-22T14:39:06;8.90;;;7.93;;
1128;SDS011;553;51.038;7.216;2022-07-22T14:41:33;13.60;;;9.83;;
1128;SDS011;553;51.038;7.216;2022-07-22T14:44:00;10.70;;;8.10;;
1128;SDS011;553;51.038;7.216;2022-07-22T14:46:27;8.70;;;7.83;;
1128;SDS011;553;51.038;7.216;2022-07-22T14:48:54;9.07;;;8.17;;
1128;SDS011;553;51.038;7.216;2022-07-22T14:51:21;11.90;;;9.47;;
1128;SDS011;553;51.038;7.216;2022-07-22T14:53:48;10.20;;;7.93;;
1128;SDS011;553;51.038;7.216;2022-07-22T14:56:16;9.00;;;8.10;;
1128;SDS011;553;51.038;7.216;2022-07-22T14:58:44;9.63;;;8.30;;
1128;SDS011;553;51.038;7.216;2022-07-22T15:01:11;10.20;;;8.13;;
1128;SDS011;553;51.038;7.216;2022-07-22T15:03:39;8.53;;;7.47;;
1128;SDS011;553;51.038;7.216;2022-07-22T15:06:07;11.37;;;8.47;;
1128;SDS011;553;51.038;7.216;2022-07-22T15:08:35;10.67;;;8.23;;
1128;SDS011;553;51.038;7.216;2022-07-22T15:11:03;10.73;;;9.73;;
1128;SDS011;553;51.038;7.216;2022-07-22T15:13:30;9.73;;;8.03;;
1128;SDS011;553;51.038;7.216;2022-07-22T15:15:57;10.50;;;8.23;;
1128;SDS011;553;51.038;7.216;2022-07-22T15:18:25;9.50;;;8.07;;
1128;SDS011;553;51.038;7.216;2022-07-22T15:20:52;9.23;;;8.07;;
1128;SDS011;553;51.038;7.216;2022-07-22T15:23:21;10.37;;;9.37;;
1128;SDS011;553;51.038;7.216;2022-07-22T15:25:54;9.10;;;8.20;;
1128;SDS011;553;51.038;7.216;2022-07-22T15:28:22;9.33;;;8.43;;
1128;SDS011;553;51.038;7.216;2022-07-22T15:30:59;11.70;;;8.77;;
1128;SDS011;553;51.038;7.216;2022-07-22T15:33:26;8.83;;;7.93;;
1128;SDS011;553;51.038;7.216;2022-07-22T15:36:03;12.17;;;9.00;;
1128;SDS011;553;51.038;7.216;2022-07-22T15:38:32;10.30;;;8.77;;
1128;SDS011;553;51.038;7.216;2022-07-22T15:41:00;10.17;;;9.17;;
1128;SDS011;553;51.038;7.216;2022-07-22T15:43:27;9.93;;;8.40;;
1128;SDS011;553;51.038;7.216;2022-07-22T15:45:54;10.50;;;9.50;;
1128;SDS011;553;51.038;7.216;2022-07-22T15:48:21;10.73;;;8.73;;
1128;SDS011;553;51.038;7.216;2022-07-22T15:50:48;11.30;;;8.80;;
1128;SDS011;553;51.038;7.216;2022-07-22T15:53:15;11.37;;;8.43;;
1128;SDS011;553;51.038;7.216;2022-07-22T15:55:42;9.83;;;8.83;;
1128;SDS011;553;51.038;7.216;2022-07-22T15:58:09;12.27;;;8.33;;
1128;SDS011;553;51.038;7.216;2022-07-22T16:00:55;12.17;;;9.10;;
1128;SDS011;553;51.038;7.216;2022-07-22T16:03:21;10.70;;;9.60;;
1128;SDS011;553;51.038;7.216;2022-07-22T16:05:52;11.63;;;9.50;;
1128;SDS011;553;51.038;7.216;2022-07-22T16:08:21;12.87;;;9.03;;
1128;SDS011;553;51.038;7.216;2022-07-22T16:10:48;10.80;;;9.67;;
1128;SDS011;553;51.038;7.216;2022-07-22T16:13:15;11.00;;;9.90;;
1128;SDS011;553;51.038;7.216;2022-07-22T16:15:41;10.53;;;9.20;;
1128;SDS011;553;51.038;7.216;2022-07-22T16:18:08;10.97;;;9.87;;